createdAt,value
2023-03-22T00:00:16.958Z,18.26
2023-03-22T00:02:45.515Z,18.25
2023-03-22T00:05:13.662Z,18.23
2023-03-22T00:07:43.531Z,18.21
2023-03-22T00:10:12.410Z,18.21
2023-03-22T00:12:40.601Z,18.20
2023-03-22T00:15:11.166Z,18.18
2023-03-22T00:17:42.132Z,18.16
2023-03-22T00:20:11.453Z,18.15
2023-03-22T00:22:39.775Z,18.14
2023-03-22T00:25:08.443Z,18.13
2023-03-22T00:27:36.666Z,18.11
2023-03-22T00:30:05.909Z,18.03
2023-03-22T00:32:35.735Z,18.10
2023-03-22T00:35:06.257Z,18.08
2023-03-22T00:37:38.536Z,18.06
2023-03-22T00:40:08.830Z,18.06
2023-03-22T00:42:37.301Z,18.03
2023-03-22T00:45:06.910Z,18.03
2023-03-22T00:47:36.347Z,18.03
2023-03-22T00:50:07.695Z,18.01
2023-03-22T00:52:36.076Z,17.98
2023-03-22T00:55:04.156Z,17.97
2023-03-22T00:57:32.268Z,17.97
2023-03-22T01:00:07.660Z,17.95
2023-03-22T01:02:35.957Z,17.94
2023-03-22T01:05:06.724Z,17.93
2023-03-22T01:07:38.225Z,17.93
2023-03-22T01:10:07.290Z,17.92
2023-03-22T01:12:35.929Z,17.91
2023-03-22T01:15:04.653Z,17.90
2023-03-22T01:17:32.798Z,17.88
2023-03-22T01:20:00.946Z,17.86
2023-03-22T01:22:30.483Z,17.83
2023-03-22T01:24:58.544Z,17.83
2023-03-22T01:27:26.851Z,17.82
2023-03-22T01:29:55.087Z,17.80
2023-03-22T01:32:23.354Z,17.81
2023-03-22T01:34:52.247Z,17.79
2023-03-22T01:37:21.970Z,17.76
2023-03-22T01:39:51.400Z,17.77
2023-03-22T01:42:21.071Z,17.74
2023-03-22T01:45:33.714Z,17.73
2023-03-22T01:48:06.360Z,17.71
2023-03-22T01:50:34.685Z,17.69
2023-03-22T01:53:05.292Z,17.70
2023-03-22T01:55:35.251Z,17.69
2023-03-22T01:58:04.501Z,17.67
2023-03-22T02:00:33.888Z,17.66
2023-03-22T02:03:02.207Z,17.65
2023-03-22T02:05:31.840Z,17.64
2023-03-22T02:08:01.104Z,17.63
2023-03-22T02:10:29.692Z,17.62
2023-03-22T02:13:30.558Z,17.60
2023-03-22T02:16:12.380Z,17.57
2023-03-22T02:19:00.300Z,17.57
2023-03-22T02:21:43.607Z,17.56
2023-03-22T02:24:32.890Z,17.52
2023-03-22T02:27:28.730Z,17.51
2023-03-22T02:30:10.245Z,17.50
2023-03-22T02:33:02.696Z,17.49
2023-03-22T02:35:43.106Z,17.48
2023-03-22T02:38:59.505Z,17.47
2023-03-22T02:41:41.369Z,17.46
2023-03-22T02:44:16.142Z,17.43
2023-03-22T02:46:47.609Z,17.43
2023-03-22T02:49:22.850Z,17.37
2023-03-22T02:52:01.092Z,17.40
2023-03-22T02:54:39.266Z,17.38
2023-03-22T02:57:14.260Z,17.36
2023-03-22T02:59:44.502Z,17.33
2023-03-22T03:02:18.276Z,17.35
2023-03-22T03:04:49.353Z,17.34
2023-03-22T03:07:21.829Z,17.33
2023-03-22T03:09:55.500Z,17.32
2023-03-22T03:12:26.555Z,17.31
2023-03-22T03:14:57.757Z,17.29
2023-03-22T03:17:39.973Z,17.27
2023-03-22T03:20:24.287Z,17.27
2023-03-22T03:23:13.676Z,17.25
2023-03-22T03:25:49.791Z,17.25
2023-03-22T03:28:30.518Z,17.23
2023-03-22T03:31:03.799Z,17.20
2023-03-22T03:33:36.380Z,17.21
2023-03-22T03:36:09.509Z,17.20
2023-03-22T03:38:39.210Z,17.18
2023-03-22T03:41:12.476Z,17.15
2023-03-22T03:43:43.480Z,17.15
2023-03-22T03:46:12.030Z,17.15
2023-03-22T03:48:44.167Z,17.14
2023-03-22T03:51:13.550Z,17.12
2023-03-22T03:53:41.592Z,17.12
2023-03-22T03:56:11.718Z,17.10
2023-03-22T03:58:40.887Z,17.11
2023-03-22T04:01:09.077Z,17.06
2023-03-22T04:03:37.841Z,17.10
2023-03-22T04:06:06.622Z,17.04
2023-03-22T04:08:34.717Z,17.07
2023-03-22T04:11:03.128Z,17.06
2023-03-22T04:13:32.545Z,17.05
2023-03-22T04:16:02.223Z,17.04
2023-03-22T04:18:30.334Z,17.03
2023-03-22T04:20:58.610Z,17.03
2023-03-22T04:23:26.686Z,17.02
2023-03-22T04:25:54.820Z,17.00
2023-03-22T04:28:24.046Z,16.99
2023-03-22T04:30:54.403Z,16.99
2023-03-22T04:33:23.082Z,16.98
2023-03-22T04:35:56.777Z,16.95
2023-03-22T04:38:26.126Z,16.95
2023-03-22T04:40:55.382Z,16.96
2023-03-22T04:43:23.574Z,16.95
2023-03-22T04:45:55.026Z,16.93
2023-03-22T04:48:24.381Z,16.92
2023-03-22T04:50:53.463Z,16.89
2023-03-22T04:53:27.453Z,16.88
2023-03-22T04:55:57.097Z,16.90
2023-03-22T04:58:25.500Z,16.89
2023-03-22T05:00:55.125Z,16.87
2023-03-22T05:03:23.634Z,16.85
2023-03-22T05:05:54.606Z,16.85
2023-03-22T05:08:24.944Z,16.84
2023-03-22T05:10:53.414Z,16.84
2023-03-22T05:13:22.701Z,16.82
2023-03-22T05:15:51.818Z,16.83
2023-03-22T05:18:24.645Z,16.81
2023-03-22T05:20:54.944Z,16.81
2023-03-22T05:23:23.952Z,16.81
2023-03-22T05:25:53.715Z,16.81
2023-03-22T05:28:22.777Z,16.79
2023-03-22T05:30:51.483Z,16.78
2023-03-22T05:33:22.684Z,16.77
2023-03-22T05:35:51.198Z,16.78
2023-03-22T05:38:19.492Z,16.78
2023-03-22T05:40:47.611Z,16.77
2023-03-22T05:43:16.209Z,16.74
2023-03-22T05:45:45.732Z,16.77
2023-03-22T05:48:13.943Z,16.75
2023-03-22T05:50:43.720Z,16.75
2023-03-22T05:53:12.387Z,16.74
2023-03-22T05:55:40.426Z,16.74
2023-03-22T05:58:09.147Z,16.73
2023-03-22T06:00:37.432Z,16.74
2023-03-22T06:03:05.706Z,16.72
2023-03-22T06:05:36.493Z,16.72
2023-03-22T06:08:06.175Z,16.72
2023-03-22T06:10:34.253Z,16.72
2023-03-22T06:13:02.430Z,16.71
2023-03-22T06:15:30.572Z,16.69
2023-03-22T06:17:58.890Z,16.71
2023-03-22T06:20:27.257Z,16.69
2023-03-22T06:22:55.460Z,16.69
2023-03-22T06:25:24.905Z,16.70
2023-03-22T06:27:52.953Z,16.70
2023-03-22T06:30:21.781Z,16.69
2023-03-22T06:32:49.867Z,16.70
2023-03-22T06:35:18.096Z,16.69
2023-03-22T06:37:46.501Z,16.70
2023-03-22T06:40:14.763Z,16.69
2023-03-22T06:42:44.261Z,16.70
2023-03-22T06:45:14.666Z,16.70
2023-03-22T06:47:42.940Z,16.70
2023-03-22T06:50:11.949Z,16.67
2023-03-22T06:52:40.133Z,16.70
2023-03-22T06:55:09.058Z,16.70
2023-03-22T06:57:37.180Z,16.71
2023-03-22T07:00:08.355Z,16.67
2023-03-22T07:02:37.014Z,16.70
2023-03-22T07:05:05.869Z,16.70
2023-03-22T07:07:34.160Z,16.71
2023-03-22T07:10:02.369Z,16.71
2023-03-22T07:12:30.682Z,16.68
2023-03-22T07:14:59.293Z,16.71
2023-03-22T07:17:28.748Z,16.74
2023-03-22T07:19:57.293Z,16.73
2023-03-22T07:22:25.907Z,16.73
2023-03-22T07:24:58.337Z,16.74
2023-03-22T07:27:27.536Z,16.75
2023-03-22T07:29:55.775Z,16.76
2023-03-22T07:32:23.876Z,16.74
2023-03-22T07:34:53.354Z,16.78
2023-03-22T07:37:22.435Z,16.75
2023-03-22T07:39:50.670Z,16.77
2023-03-22T07:42:18.790Z,16.77
2023-03-22T07:44:49.736Z,16.81
2023-03-22T07:47:27.223Z,16.80
2023-03-22T07:50:04.061Z,16.81
2023-03-22T07:52:32.491Z,16.82
2023-03-22T07:55:00.776Z,16.83
2023-03-22T07:57:28.912Z,16.84
2023-03-22T07:59:57.679Z,16.85
2023-03-22T08:02:25.829Z,16.86
2023-03-22T08:04:56.418Z,16.88
2023-03-22T08:07:26.360Z,16.89
2023-03-22T08:09:54.610Z,16.91
2023-03-22T08:12:22.763Z,16.92
2023-03-22T08:14:52.861Z,16.93
2023-03-22T08:17:21.129Z,16.93
2023-03-22T08:19:50.050Z,16.95
2023-03-22T08:22:18.141Z,16.96
2023-03-22T08:24:47.566Z,16.97
2023-03-22T08:27:15.688Z,16.97
2023-03-22T08:29:44.155Z,16.99
2023-03-22T08:32:12.588Z,16.98
2023-03-22T08:34:41.271Z,17.00
2023-03-22T08:37:10.596Z,17.02
2023-03-22T08:39:40.959Z,17.04
2023-03-22T08:42:10.874Z,17.03
2023-03-22T08:44:39.028Z,17.05
2023-03-22T08:47:07.170Z,17.08
2023-03-22T08:49:35.716Z,17.09
2023-03-22T08:52:04.335Z,17.09
2023-03-22T08:54:34.621Z,17.11
2023-03-22T08:57:03.438Z,17.10
2023-03-22T08:59:33.148Z,17.12
2023-03-22T09:02:01.640Z,17.11
2023-03-22T09:04:29.879Z,17.14
2023-03-22T09:06:57.949Z,17.16
2023-03-22T09:09:26.211Z,17.16
2023-03-22T09:11:54.413Z,17.19
2023-03-22T09:14:22.512Z,17.19
2023-03-22T09:16:52.061Z,17.21
2023-03-22T09:19:20.597Z,17.22
2023-03-22T09:21:49.992Z,17.25
2023-03-22T09:24:18.346Z,17.27
2023-03-22T09:26:46.660Z,17.27
2023-03-22T09:29:15.309Z,17.30
2023-03-22T09:31:44.635Z,17.32
2023-03-22T09:34:14.091Z,17.31
2023-03-22T09:36:42.422Z,17.35
2023-03-22T09:39:10.480Z,17.33
2023-03-22T09:41:45.291Z,17.36
2023-03-22T09:44:16.545Z,17.39
2023-03-22T09:46:48.921Z,17.41
2023-03-22T09:49:23.062Z,17.41
2023-03-22T09:51:52.943Z,17.41
2023-03-22T09:54:28.088Z,17.38
2023-03-22T09:57:01.296Z,17.45
2023-03-22T09:59:40.947Z,17.42
2023-03-22T10:02:28.522Z,17.48
2023-03-22T10:05:04.765Z,17.49
2023-03-22T10:07:41.822Z,17.50
2023-03-22T10:10:17.885Z,17.51
2023-03-22T10:12:54.599Z,17.54
2023-03-22T10:15:29.874Z,17.53
2023-03-22T10:18:00.604Z,17.53
2023-03-22T10:20:40.661Z,17.56
2023-03-22T10:23:15.610Z,17.51
2023-03-22T10:25:44.771Z,17.55
2023-03-22T10:28:19.356Z,17.57
2023-03-22T10:30:53.462Z,17.56
2023-03-22T10:33:30.888Z,17.59
2023-03-22T10:36:02.215Z,17.58
2023-03-22T10:38:31.729Z,17.59
2023-03-22T10:41:01.386Z,17.58
2023-03-22T10:43:33.553Z,17.61
2023-03-22T10:46:04.239Z,17.59
2023-03-22T10:48:36.271Z,17.61
2023-03-22T10:51:06.478Z,17.62
2023-03-22T10:53:40.133Z,17.62
2023-03-22T10:56:14.122Z,17.62
2023-03-22T10:58:42.918Z,17.61
2023-03-22T11:01:13.221Z,17.62
2023-03-22T11:03:43.747Z,17.62
2023-03-22T11:06:15.477Z,17.63
2023-03-22T11:08:46.727Z,17.63
2023-03-22T11:11:18.854Z,17.64
2023-03-22T11:13:52.500Z,17.64
2023-03-22T11:16:21.515Z,17.64
2023-03-22T11:18:49.747Z,17.63
2023-03-22T11:21:23.218Z,17.63
2023-03-22T11:23:57.647Z,17.64
2023-03-22T11:26:34.760Z,17.64
2023-03-22T11:29:14.780Z,17.63
2023-03-22T11:31:56.248Z,17.65
2023-03-22T11:34:27.170Z,17.64
2023-03-22T11:37:00.443Z,17.63
2023-03-22T11:39:30.413Z,17.65
2023-03-22T11:42:01.575Z,17.64
2023-03-22T11:44:35.450Z,17.63
2023-03-22T11:47:05.728Z,17.63
2023-03-22T11:49:43.417Z,17.64
2023-03-22T11:52:17.629Z,17.65
2023-03-22T11:54:47.326Z,17.66
2023-03-22T11:57:19.252Z,17.66
2023-03-22T11:59:49.983Z,17.67
2023-03-22T12:02:24.523Z,17.67
2023-03-22T12:05:00.671Z,17.68
2023-03-22T12:07:33.858Z,17.67
2023-03-22T12:10:04.175Z,17.70
2023-03-22T12:12:37.130Z,17.71
2023-03-22T12:15:14.307Z,17.71
2023-03-22T12:17:48.353Z,17.75
2023-03-22T12:20:22.789Z,17.76
2023-03-22T12:22:55.285Z,17.78
2023-03-22T12:25:26.675Z,17.80
2023-03-22T12:27:57.413Z,17.82
2023-03-22T12:30:27.810Z,17.83
2023-03-22T12:33:02.657Z,17.83
2023-03-22T12:35:35.365Z,17.87
2023-03-22T12:38:12.725Z,17.83
2023-03-22T12:40:42.766Z,17.89
2023-03-22T12:43:18.531Z,17.90
2023-03-22T12:45:53.323Z,17.90
2023-03-22T12:48:31.940Z,17.92
2023-03-22T12:51:05.541Z,17.92
2023-03-22T12:53:42.360Z,17.93
2023-03-22T12:56:13.934Z,17.92
2023-03-22T12:58:45.374Z,17.93
2023-03-22T13:01:23.158Z,17.97
2023-03-22T13:03:54.875Z,17.95
2023-03-22T13:06:55.565Z,18.00
2023-03-22T13:09:40.560Z,18.00
2023-03-22T13:12:33.225Z,18.03
2023-03-22T13:15:05.196Z,18.05
2023-03-22T13:17:43.962Z,18.08
2023-03-22T13:20:30.876Z,18.10
2023-03-22T13:23:27.472Z,18.13
2023-03-22T13:26:06.678Z,18.15
2023-03-22T13:28:38.258Z,18.17
2023-03-22T13:31:07.623Z,18.19
2023-03-22T13:33:38.750Z,18.19
2023-03-22T13:36:09.976Z,18.24
2023-03-22T13:38:42.540Z,18.26
2023-03-22T13:41:22.951Z,18.27
2023-03-22T13:43:53.050Z,18.28
2023-03-22T13:46:47.820Z,18.32
2023-03-22T13:49:32.745Z,18.33
2023-03-22T13:52:07.190Z,18.34
2023-03-22T13:54:42.282Z,18.35
2023-03-22T13:57:38.715Z,18.37
2023-03-22T14:00:22.400Z,18.37
2023-03-22T14:02:51.990Z,18.39
2023-03-22T14:05:23.969Z,18.40
2023-03-22T14:07:56.235Z,18.40
2023-03-22T14:10:27.059Z,18.42
2023-03-22T14:13:00.943Z,18.43
2023-03-22T14:15:35.534Z,18.43
2023-03-22T14:18:08.119Z,18.44
2023-03-22T14:20:38.311Z,18.45
